Flight Track Log - Related Links

Times and Time Zones

All times are in EDT time to prevent confusion due to time zone crossing. See the SWA2082 flight status page for this flight to view local times or setup timezone preferences in your user account.

Time Position Orientation Groundspeed Altitude Reporting Facility
EDT Latitude Longitude Course Direction KTS MPH feet Rate Location/Type
Sun 12:10:22 PM 26.0747 -80.1414 70° East 139 160 600  Level Miami Center
Sun 12:11:22 PM 26.0906 -80.0931 31° Northeast 199 229 2,800 2,826 Climbing Miami Center
Sun 12:12:23 PM 26.1478 -80.0553 75° East 244 281 6,300 3,492 Climbing Miami Center
Sun 12:13:24 PM 26.1683 -79.9725 70° East 263 303 9,900 2,803 Climbing Miami Center
Sun 12:14:25 PM 26.1950 -79.8900 72° East 308 354 12,000 2,628 Climbing Miami Center
Sun 12:15:25 PM 26.2222 -79.7956 71° East 321 369 15,200 2,900 Climbing Miami Center
Sun 12:16:25 PM 26.2533 -79.6969 59° Northeast 326 375 17,800 2,700 Climbing Miami Center
Sun 12:17:25 PM 26.3117 -79.5892 37° Northeast 343 395 20,600 2,450 Climbing Miami Center
Sun 12:18:25 PM 26.3967 -79.5169 31° Northeast 372 428 22,700 1,200 Climbing Miami Center
Sun 12:19:25 PM 26.4919 -79.4519 33° Northeast 394 453 23,000 850 Climbing Miami Center
Sun 12:20:25 PM 26.5786 -79.3886 32° Northeast 402 463 24,400 1,600 Climbing Miami Center
Sun 12:21:25 PM 26.6800 -79.3189 34° Northeast 407 468 26,200 1,600 Climbing Miami Center
Sun 12:22:25 PM 26.7836 -79.2419 32° Northeast 427 491 27,600 1,450 Climbing Miami Center
Sun 12:23:25 PM 26.8914 -79.1650 31° Northeast 441 507 29,100 1,400 Climbing Miami Center
Sun 12:24:25 PM 27.0056 -79.0878 34° Northeast 457 526 30,400 1,500 Climbing Miami Center
Sun 12:25:25 PM 27.1281 -78.9944 32° Northeast 477 549 32,100 1,650 Climbing Miami Center
Sun 12:26:25 PM 27.2461 -78.9125 33° Northeast 487 560 33,700 1,600 Climbing Miami Center
Sun 12:27:25 PM 27.3600 -78.8303 17° North 487 560 35,300 1,500 Climbing Miami Center
Sun 12:28:25 PM 27.4733 -78.7903 North 469 540 36,700 1,300 Climbing Miami Center
Sun 12:29:25 PM 27.6031 -78.7689 North 475 547 37,900 1,100 Climbing Miami Center
Sun 12:30:25 PM 27.7517 -78.7481 North 475 547 38,900 550 Climbing Miami Center
Sun 12:31:25 PM 27.8833 -78.7267 North 480 552 39,000 50 Climbing Miami Center
Sun 12:32:25 PM 28.0025 -78.7144 North 480 552 39,000  Level Miami Center
Sun 12:33:25 PM 28.1364 -78.6956 North 480 552 39,000  Level Miami Center
Sun 12:34:25 PM 28.2850 -78.6694 North 494 568 39,000  Level Miami Center
Sun 12:35:25 PM 28.4208 -78.6506 North 494 568 39,000  Level Miami Center
Sun 12:36:25 PM 28.5528 -78.6314 North 494 568 39,000  Level Miami Center
Sun 12:37:25 PM 28.6844 -78.6097 North 484 557 39,000  Level Miami Center
Sun 12:38:25 PM 28.8203 -78.5931 North 484 557 39,000  Level Miami Center
Sun 12:39:25 PM 28.9519 -78.5689 North 484 557 39,000  Level Miami Center
Sun 12:40:25 PM 29.0836 -78.5494 North 477 549 39,000  Level Miami Center
Sun 12:41:25 PM 29.2194 -78.5303 North 477 549 39,000  Level Miami Center
Sun 12:42:25 PM 29.3533 -78.5133 North 482 555 39,000  Level Miami Center
Sun 12:43:25 PM 29.4850 -78.4914 North 482 555 39,000 50 Level Miami Center
Sun 12:44:25 PM 29.6228 -78.4719 North 488 562 39,100 500 Climbing Miami Center
Sun 12:45:25 PM 29.7564 -78.4525 North 481 554 40,000 514 Climbing Miami Center
Sun 12:46:10 PM 29.8444 -78.4392 10° North 497 572 40,000  Level Jacksonville Center
Sun 12:47:10 PM 29.9728 -78.4139 North 497 572 40,000  Level Jacksonville Center
Sun 12:48:10 PM 30.1167 -78.4072 13° North 491 565 40,000  Level Jacksonville Center
Sun 12:49:10 PM 30.2344 -78.3753 North 469 540 40,000  Level Jacksonville Center
Sun 12:50:10 PM 30.3633 -78.3572 North 448 516 40,000  Level Jacksonville Center
Sun 12:51:10 PM 30.4958 -78.3317 11° North 458 527 40,000  Level Jacksonville Center
Sun 12:52:10 PM 30.6264 -78.3014 10° North 479 551 40,000  Level Jacksonville Center
Sun 12:53:10 PM 30.7589 -78.2733 10° North 479 551 40,000  Level Jacksonville Center
Sun 12:54:10 PM 30.8914 -78.2450 10° North 472 543 40,000  Level Jacksonville Center
Sun 12:55:10 PM 31.0281 -78.2164 North 474 545 40,000  Level Jacksonville Center
Sun 12:56:10 PM 31.1403 -78.1986 11° North 483 556 40,000  Level Jacksonville Center
Sun 12:57:10 PM 31.2706 -78.1703 11° North 478 550 40,000  Level Jacksonville Center
Sun 12:58:10 PM 31.3969 -78.1419 11° North 472 543 40,000  Level Jacksonville Center
Sun 12:59:10 PM 31.5272 -78.1111 11° North 472 543 40,000  Level Jacksonville Center
Sun 01:00:10 PM 31.6536 -78.0825 19° North 467 537 40,000  Level Jacksonville Center
Sun 01:01:10 PM 31.7850 -78.0292 18° North 472 543 40,000  Level Jacksonville Center
Sun 01:02:10 PM 31.9147 -77.9808 19° North 472 543 40,000  Level Jacksonville Center
Sun 01:03:10 PM 32.0442 -77.9297 18° North 479 551 40,000 -400 Level Jacksonville Center
Sun 01:04:10 PM 32.1739 -77.8811 19° North 479 551 39,200 -500 Descending Jacksonville Center
Sun 01:05:10 PM 32.3033 -77.8297 17° North 479 551 39,000 -100 Descending Jacksonville Center
Sun 01:06:10 PM 32.4308 -77.7833 19° North 474 545 39,000  Level Jacksonville Center
Sun 01:07:10 PM 32.5600 -77.7292 18° North 474 545 39,000  Level Jacksonville Center
Sun 01:08:10 PM 32.6917 -77.6797 18° North 474 545 39,000  Level Jacksonville Center
Sun 01:09:10 PM 32.8189 -77.6303 18° North 479 551 39,000  Level Jacksonville Center
Sun 01:10:10 PM 32.9483 -77.5806 19° North 479 551 39,000  Level Jacksonville Center
Sun 01:11:10 PM 33.0756 -77.5286 18° North 474 545 39,000  Level Jacksonville Center
Sun 01:13:27 PM 33.3778 -77.4119 18° North 473 544 39,000  Level Washington Center
Sun 01:14:27 PM 33.5036 -77.3625 19° North 473 544 39,000  Level Washington Center
Sun 01:15:28 PM 33.6253 -77.3128 18° North 468 539 39,000  Level Washington Center
Sun 01:16:26 PM 33.7514 -77.2628 18° North 468 539 39,000  Level Washington Center
Sun 01:17:27 PM 33.8708 -77.2153 18° North 463 533 39,000  Level Washington Center
Sun 01:18:28 PM 33.9925 -77.1675 16° North 458 527 39,000  Level Washington Center
Sun 01:19:26 PM 34.1014 -77.1294 20° North 458 527 39,000  Level Washington Center
Sun 01:20:26 PM 34.2189 -77.0789 17° North 452 520 39,000  Level Washington Center
Sun 01:21:27 PM 34.3383 -77.0333 18° North 447 514 39,000  Level Washington Center
Sun 01:22:27 PM 34.4578 -76.9850 17° North 447 514 39,000  Level Washington Center
Sun 01:23:28 PM 34.5794 -76.9392 19° North 447 514 39,000  Level Washington Center
Sun 01:24:28 PM 34.6947 -76.8906 18° North 442 509 39,000  Level Washington Center
Sun 01:25:26 PM 34.8100 -76.8442 18° North 442 509 39,000  Level Washington Center
Sun 01:26:27 PM 34.9253 -76.7978 17° North 437 503 39,000  Level Washington Center
Sun 01:27:28 PM 35.0403 -76.7539 21° North 437 503 39,000  Level Washington Center
Sun 01:28:29 PM 35.1514 -76.7022 19° North 425 489 39,000  Level Washington Center
Sun 01:29:27 PM 35.2644 -76.6556 18° North 425 489 39,000  Level Washington Center
Sun 01:30:27 PM 35.3756 -76.6111 18° North 419 482 39,000  Level Washington Center
Sun 01:31:27 PM 35.4864 -76.5667 19° North 414 476 39,000  Level Washington Center
Sun 01:32:26 PM 35.5994 -76.5194 18° North 419 482 39,000  Level Washington Center
Sun 01:33:26 PM 35.7125 -76.4747 20° North 419 482 39,000  Level Washington Center
Sun 01:34:27 PM 35.8256 -76.4247 18° North 425 489 39,000  Level Washington Center
Sun 01:35:28 PM 35.9364 -76.3797 20° North 425 489 39,000  Level Washington Center
Sun 01:36:26 PM 36.0453 -76.3319 19° North 425 489 39,000  Level Washington Center
Sun 01:37:26 PM 36.1519 -76.2867 18° North 420 483 39,000  Level Washington Center
Sun 01:38:27 PM 36.2564 -76.2436 18° North 402 463 39,000  Level Washington Center
Sun 01:39:28 PM 36.3569 -76.2033 19° North 390 449 39,000  Level Washington Center
Sun 01:40:28 PM 36.4572 -76.1600 19° North 384 442 39,000  Level Washington Center
Sun 01:41:26 PM 36.5597 -76.1169 19° North 384 442 39,000  Level Washington Center
Sun 01:42:26 PM 36.6558 -76.0761 20° North 379 436 39,000  Level Washington Center
Sun 01:43:27 PM 36.7667 -76.0250 19° North 379 436 39,000  Level Washington Center
Sun 01:44:28 PM 36.8583 -75.9864 20° North 379 436 39,000  Level Washington Center
Sun 01:45:26 PM 36.9567 -75.9428 17° North 379 436 39,000  Level Washington Center
Sun 01:46:27 PM 37.0714 -75.8992 19° North 384 442 39,000  Level Washington Center
Sun 01:47:28 PM 37.1717 -75.8550 19° North 379 436 39,000  Level Washington Center
Sun 01:48:28 PM 37.2678 -75.8136 19° North 379 436 39,000  Level Washington Center
Sun 01:49:26 PM 37.3681 -75.7694 20° North 379 436 39,000  Level Washington Center
Sun 01:50:26 PM 37.4661 -75.7253 19° North 374 430 39,000  Level Washington Center
Sun 01:51:27 PM 37.5683 -75.6808 34° Northeast 374 430 39,000 -50 Level Washington Center
Sun 01:52:27 PM 37.6622 -75.6022 36° Northeast 379 436 38,900 -99 Descending Washington Center
Sun 01:53:28 PM 37.7539 -75.5183 37° Northeast 394 453 38,800 -807 Descending Washington Center
Sun 01:54:26 PM 37.8414 -75.4342 38° Northeast 400 460 37,300 -1,627 Descending Washington Center
Sun 01:55:26 PM 37.9267 -75.3494 37° Northeast 395 455 35,600 -1,636 Descending Washington Center
Sun 01:56:27 PM 38.0244 -75.2569 36° Northeast 402 463 34,000 -1,279 Descending Washington Center
Sun 01:57:28 PM 38.1264 -75.1614 38° Northeast 426 490 33,000 -496 Descending Washington Center
Sun 01:58:28 PM 38.2261 -75.0606 39° Northeast 444 511 33,000  Level Washington Center
Sun 01:59:26 PM 38.3175 -74.9672 37° Northeast 459 528 33,000  Level Washington Center
Sun 02:00:27 PM 38.4192 -74.8708 36° Northeast 459 528 33,000  Level Washington Center
Sun 02:01:27 PM 38.5228 -74.7744 38° Northeast 459 528 33,000  Level Washington Center
Sun 02:02:28 PM 38.6242 -74.6722 37° Northeast 459 528 33,000  Level Washington Center
Sun 02:03:29 PM 38.7378 -74.5617 38° Northeast 464 534 33,000  Level Washington Center
Sun 02:04:27 PM 38.8392 -74.4589 38° Northeast 464 534 33,000  Level Washington Center
Sun 02:05:27 PM 38.9403 -74.3586 38° Northeast 458 527 33,000  Level Washington Center
Sun 02:06:28 PM 39.0392 -74.2581 38° Northeast 458 527 33,000  Level Washington Center
Sun 02:07:28 PM 39.1381 -74.1600 38° Northeast 458 527 33,000  Level Washington Center
Sun 02:08:28 PM 39.2389 -74.0589 38° Northeast 458 527 33,000  Level Washington Center
Sun 02:10:39 PM 39.4578 -73.8397 38° Northeast 454 522 33,000  Level Boston Center
Sun 02:11:38 PM 39.5611 -73.7342 38° Northeast 459 528 33,000  Level Boston Center
Sun 02:12:38 PM 39.6622 -73.6311 38° Northeast 459 528 33,000  Level Boston Center
Sun 02:13:38 PM 39.7653 -73.5278 39° Northeast 459 528 33,000  Level Boston Center
Sun 02:14:38 PM 39.8664 -73.4214 38° Northeast 459 528 33,000  Level Boston Center
Sun 02:15:38 PM 39.9589 -73.3278 39° Northeast 464 534 33,000  Level Boston Center
Sun 02:16:38 PM 40.0639 -73.2181 39° Northeast 469 540 33,000  Level Boston Center
Sun 02:17:38 PM 40.1625 -73.1133 37° Northeast 469 540 33,000  Level Boston Center
Sun 02:18:38 PM 40.2775 -72.9978 38° Northeast 469 540 33,000 -1,000 Level Boston Center
Sun 02:19:38 PM 40.3803 -72.8922 37° Northeast 464 534 31,000 -2,200 Descending Boston Center
Sun 02:20:38 PM 40.4783 -72.7947 40° Northeast 458 527 28,600 -2,350 Descending Boston Center
Sun 02:21:38 PM 40.5683 -72.6969 48° Northeast 436 502 26,300 -2,500 Descending Boston Center
Sun 02:22:38 PM 40.6478 -72.5822 50° Northeast 424 488 23,600 -2,050 Descending Boston Center
Sun 02:23:38 PM 40.7292 -72.4539 52° Northeast 429 494 22,200 -1,900 Descending Boston Center
Sun 02:24:38 PM 40.7956 -72.3414 51° Northeast 441 507 19,800 -2,411 Descending Boston Center
Sun 02:25:30 PM 40.8622 -72.2342 53° Northeast 416 479 17,700 -2,300 Descending Boston Center
Sun 02:26:38 PM 40.9369 -72.1050 51° Northeast 413 475 15,200 -2,344 Descending Boston Center
Sun 02:27:38 PM 41.0053 -71.9944 49° Northeast 400 460 12,700 -2,000 Descending Boston Center
Sun 02:28:38 PM 41.0717 -71.8922 50° Northeast 375 432 11,200 -1,150 Descending Boston Center
Sun 02:29:38 PM 41.1378 -71.7869 50° Northeast 345 397 10,400 -950 Descending Boston Center
Sun 02:30:38 PM 41.1831 -71.7147 49° Northeast 295 339 9,300 -1,250 Descending Boston Center
Sun 02:31:38 PM 41.2386 -71.6286 50° Northeast 281 323 7,900 -1,150 Descending Boston Center
Sun 02:32:38 PM 41.2819 -71.5589 27° Northeast 281 323 7,000 -650 Descending Boston Center
Sun 02:33:38 PM 41.3525 -71.5108 23° Northeast 259 298 6,600 -850 Descending Boston Center
Sun 02:34:38 PM 41.4125 -71.4769 24° Northeast 254 292 5,300 -1,450 Descending Boston Center
Sun 02:35:38 PM 41.4853 -71.4342 24° Northeast 259 298 3,700 -1,250 Descending Boston Center
Sun 02:36:38 PM 41.5433 -71.4000 23° Northeast 253 291 2,800 -744 Descending Boston Center
Sun 02:37:39 PM 41.6075 -71.3628 North 240 276 2,200 -500 Descending Boston Center
Sun 02:38:38 PM 41.6575 -71.3564 323° Northwest 212 244 1,800 -655 Descending Boston Center
Sun 02:39:38 PM 41.6953 -71.3947 323° Northwest 158 182 900 -900 Descending Boston Center

Login

Don't have an account? Register now (free) for customized features, flight alerts, and more!